createdAt,value
2023-04-17T00:01:04.941Z,75.10
2023-04-17T00:03:32.333Z,75.20
2023-04-17T00:05:59.441Z,75.10
2023-04-17T00:08:26.261Z,75.20
2023-04-17T00:11:04.142Z,75.00
2023-04-17T00:13:33.849Z,75.10
2023-04-17T00:16:00.844Z,74.90
2023-04-17T00:18:27.748Z,74.90
2023-04-17T00:20:56.794Z,74.80
2023-04-17T00:23:23.856Z,74.90
2023-04-17T00:25:50.982Z,75.00
2023-04-17T00:28:18.369Z,75.00
2023-04-17T00:30:47.779Z,75.10
2023-04-17T00:33:15.089Z,75.10
2023-04-17T00:35:48.119Z,75.00
2023-04-17T00:38:16.321Z,75.00
2023-04-17T00:40:48.240Z,75.00
2023-04-17T00:43:15.477Z,75.10
2023-04-17T00:45:42.504Z,75.10
2023-04-17T00:48:10.844Z,75.20
2023-04-17T00:50:38.372Z,75.20
2023-04-17T00:53:05.742Z,75.20
2023-04-17T00:55:34.880Z,75.20
2023-04-17T00:58:02.324Z,75.20
2023-04-17T01:00:29.137Z,75.20
2023-04-17T01:02:58.183Z,75.20
2023-04-17T01:05:28.566Z,75.20
2023-04-17T01:07:57.533Z,75.20
2023-04-17T01:10:24.404Z,75.30
2023-04-17T01:13:05.336Z,75.30
2023-04-17T01:15:34.079Z,75.30
2023-04-17T01:18:01.254Z,75.40
2023-04-17T01:20:32.029Z,75.40
2023-04-17T01:23:00.150Z,75.50
2023-04-17T01:25:28.216Z,75.60
2023-04-17T01:27:56.537Z,75.80
2023-04-17T01:30:23.988Z,75.80
2023-04-17T01:32:56.409Z,75.80
2023-04-17T01:35:23.437Z,75.80
2023-04-17T01:37:50.358Z,75.80
2023-04-17T01:40:17.393Z,75.80
2023-04-17T01:42:45.378Z,75.80
2023-04-17T01:45:12.446Z,75.60
2023-04-17T01:47:40.717Z,75.60
2023-04-17T01:50:09.274Z,75.70
2023-04-17T01:52:36.940Z,75.70
2023-04-17T01:55:04.299Z,75.70
2023-04-17T01:57:33.262Z,75.60
2023-04-17T02:00:00.584Z,75.70
2023-04-17T02:02:27.659Z,75.70
2023-04-17T02:04:54.862Z,75.70
2023-04-17T02:07:21.958Z,75.80
2023-04-17T02:09:48.919Z,75.80
2023-04-17T02:12:17.795Z,75.90
2023-04-17T02:14:44.723Z,76.00
2023-04-17T02:17:11.593Z,75.90
2023-04-17T02:19:38.711Z,75.80
2023-04-17T02:22:05.637Z,75.70
2023-04-17T02:24:32.617Z,75.60
2023-04-17T02:27:00.892Z,75.70
2023-04-17T02:29:27.793Z,75.70
2023-04-17T02:31:56.053Z,75.80
2023-04-17T02:34:22.937Z,75.70
2023-04-17T02:36:55.098Z,75.50
2023-04-17T02:39:23.713Z,75.50
2023-04-17T02:41:50.922Z,75.60
2023-04-17T02:44:18.462Z,75.50
2023-04-17T02:46:45.483Z,75.50
2023-04-17T02:49:13.503Z,75.60
2023-04-17T02:51:40.719Z,75.60
2023-04-17T02:54:07.663Z,75.50
2023-04-17T02:56:34.580Z,75.40
2023-04-17T02:59:01.530Z,75.40
2023-04-17T03:01:29.936Z,75.40
2023-04-17T03:03:57.377Z,75.30
2023-04-17T03:06:24.519Z,75.20
2023-04-17T03:08:51.532Z,75.10
2023-04-17T03:11:18.628Z,75.10
2023-04-17T03:13:45.625Z,75.10
2023-04-17T03:16:14.319Z,75.00
2023-04-17T03:18:43.027Z,75.20
2023-04-17T03:21:10.044Z,75.20
2023-04-17T03:23:37.219Z,75.10
2023-04-17T03:26:06.038Z,75.10
2023-04-17T03:28:33.755Z,74.90
2023-04-17T03:31:01.945Z,75.00
2023-04-17T03:33:30.690Z,75.10
2023-04-17T03:35:58.546Z,75.10
2023-04-17T03:38:26.238Z,75.10
2023-04-17T03:40:56.532Z,75.00
2023-04-17T03:43:25.312Z,75.00
2023-04-17T03:45:52.205Z,75.00
2023-04-17T03:48:19.277Z,75.10
2023-04-17T03:50:48.423Z,75.00
2023-04-17T03:53:15.938Z,75.10
2023-04-17T03:55:42.859Z,75.10
2023-04-17T03:58:16.498Z,75.10
2023-04-17T04:00:45.741Z,75.10
2023-04-17T04:03:14.018Z,75.20
2023-04-17T04:05:42.296Z,75.20
2023-04-17T04:08:10.934Z,75.20
2023-04-17T04:10:50.997Z,75.20
2023-04-17T04:13:23.100Z,75.30
2023-04-17T04:15:55.336Z,75.10
2023-04-17T04:18:25.385Z,75.10
2023-04-17T04:20:52.953Z,75.20
2023-04-17T04:23:28.184Z,75.20
2023-04-17T04:25:57.316Z,75.20
2023-04-17T04:28:32.189Z,75.30
2023-04-17T04:31:00.267Z,75.40
2023-04-17T04:33:31.467Z,75.30
2023-04-17T04:36:01.390Z,75.30
2023-04-17T04:38:32.707Z,75.30
2023-04-17T04:41:10.649Z,75.40
2023-04-17T04:43:40.714Z,75.30
2023-04-17T04:46:10.596Z,75.30
2023-04-17T04:48:43.006Z,75.30
2023-04-17T04:51:10.481Z,75.20
2023-04-17T04:53:39.055Z,75.20
2023-04-17T04:56:06.417Z,75.30
2023-04-17T04:58:34.834Z,75.20
2023-04-17T05:01:04.220Z,75.20
2023-04-17T05:03:37.470Z,75.10
2023-04-17T05:06:06.104Z,75.10
2023-04-17T05:08:45.176Z,75.20
2023-04-17T05:11:15.831Z,75.20
2023-04-17T05:13:43.249Z,75.20
2023-04-17T05:16:18.042Z,75.10
2023-04-17T05:18:48.065Z,75.10
2023-04-17T05:21:18.546Z,75.10
2023-04-17T05:23:48.859Z,75.10
2023-04-17T05:26:15.740Z,75.20
2023-04-17T05:28:45.365Z,75.20
2023-04-17T05:31:15.995Z,75.20
2023-04-17T05:33:43.419Z,75.30
2023-04-17T05:36:10.628Z,75.20
2023-04-17T05:38:40.010Z,75.10
2023-04-17T05:41:09.062Z,75.00
2023-04-17T05:43:37.312Z,75.00
2023-04-17T05:46:04.769Z,75.00
2023-04-17T05:48:32.335Z,74.90
2023-04-17T05:50:59.208Z,75.00
2023-04-17T05:53:26.553Z,74.80
2023-04-17T05:55:57.251Z,74.70
2023-04-17T05:58:24.905Z,74.60
2023-04-17T06:00:56.063Z,74.60
2023-04-17T06:03:24.354Z,74.60
2023-04-17T06:05:58.306Z,74.60
2023-04-17T06:08:25.531Z,74.50
2023-04-17T06:10:52.744Z,74.60
2023-04-17T06:13:19.996Z,74.70
2023-04-17T06:15:51.409Z,74.60
2023-04-17T06:18:18.941Z,74.40
2023-04-17T06:20:46.389Z,74.50
2023-04-17T06:23:13.468Z,74.50
2023-04-17T06:25:40.613Z,74.40
2023-04-17T06:28:07.420Z,74.40
2023-04-17T06:30:35.742Z,74.30
2023-04-17T06:33:04.838Z,74.30
2023-04-17T06:35:36.921Z,74.40
2023-04-17T06:38:20.543Z,74.20
2023-04-17T06:40:48.121Z,74.20
2023-04-17T06:43:18.428Z,74.10
2023-04-17T06:45:45.371Z,74.00
2023-04-17T06:48:12.256Z,74.10
2023-04-17T06:50:39.152Z,74.00
2023-04-17T06:53:06.978Z,74.10
2023-04-17T06:55:33.932Z,74.20
2023-04-17T06:58:00.995Z,74.00
2023-04-17T07:00:27.923Z,73.70
2023-04-17T07:02:54.941Z,73.60
2023-04-17T07:05:22.068Z,73.50
2023-04-17T07:07:48.822Z,73.60
2023-04-17T07:10:16.048Z,73.60
2023-04-17T07:12:43.032Z,73.70
2023-04-17T07:15:10.408Z,73.70
2023-04-17T07:17:37.711Z,73.70
2023-04-17T07:20:08.288Z,73.70
2023-04-17T07:22:35.132Z,73.70
2023-04-17T07:25:02.138Z,73.50
2023-04-17T07:27:29.127Z,73.50
2023-04-17T07:29:56.454Z,73.50
2023-04-17T07:32:28.026Z,73.60
2023-04-17T07:34:54.971Z,73.30
2023-04-17T07:37:21.754Z,73.40
2023-04-17T07:39:50.335Z,73.20
2023-04-17T07:42:17.338Z,73.10
2023-04-17T07:44:44.419Z,73.20
2023-04-17T07:47:11.597Z,73.10
2023-04-17T07:49:40.409Z,73.30
2023-04-17T07:52:08.305Z,73.30
2023-04-17T07:54:35.596Z,73.40
2023-04-17T07:57:03.668Z,73.40
2023-04-17T07:59:30.874Z,73.30
2023-04-17T08:01:57.906Z,73.10
2023-04-17T08:04:26.188Z,73.10
2023-04-17T08:06:53.534Z,73.00
2023-04-17T08:09:23.207Z,72.80
2023-04-17T08:11:57.033Z,72.70
2023-04-17T08:14:25.464Z,72.40
2023-04-17T08:16:52.721Z,72.30
2023-04-17T08:19:19.701Z,72.20
2023-04-17T08:21:50.675Z,71.90
2023-04-17T08:24:19.734Z,72.30
2023-04-17T08:26:47.810Z,72.40
2023-04-17T08:29:15.116Z,72.40
2023-04-17T08:31:42.526Z,72.40
2023-04-17T08:34:14.955Z,72.20
2023-04-17T08:36:43.100Z,72.00
2023-04-17T08:39:14.784Z,71.80
2023-04-17T08:41:51.058Z,71.90
2023-04-17T08:44:21.292Z,72.10
2023-04-17T08:46:49.523Z,71.70
2023-04-17T08:49:16.572Z,71.50
2023-04-17T08:51:43.417Z,70.90
2023-04-17T08:54:12.711Z,70.70
2023-04-17T08:56:39.552Z,70.40
2023-04-17T08:59:06.536Z,70.10
2023-04-17T09:01:34.772Z,69.40
2023-04-17T09:04:01.988Z,69.20
2023-04-17T09:06:29.719Z,68.90
2023-04-17T09:08:57.680Z,68.80
2023-04-17T09:11:25.383Z,68.40
2023-04-17T09:13:53.000Z,68.10
2023-04-17T09:16:20.247Z,67.80
2023-04-17T09:18:48.017Z,67.80
2023-04-17T09:21:19.790Z,68.40
2023-04-17T09:23:55.562Z,68.40
2023-04-17T09:26:27.535Z,68.40
2023-04-17T09:29:11.248Z,67.80
2023-04-17T09:31:43.206Z,67.80
2023-04-17T09:34:14.660Z,67.90
2023-04-17T09:36:43.524Z,67.30
2023-04-17T09:39:26.561Z,66.80
2023-04-17T09:42:04.450Z,66.30
2023-04-17T09:44:31.724Z,66.50
2023-04-17T09:47:01.406Z,66.30
2023-04-17T09:49:44.719Z,66.60
2023-04-17T09:52:13.931Z,65.90
2023-04-17T09:54:42.871Z,66.20
2023-04-17T09:57:10.875Z,65.90
2023-04-17T09:59:45.737Z,66.10
2023-04-17T10:02:15.134Z,66.20
2023-04-17T10:04:43.907Z,66.30
2023-04-17T10:07:12.720Z,66.10
2023-04-17T10:09:41.859Z,65.70
2023-04-17T10:12:16.874Z,65.40
2023-04-17T10:14:48.286Z,65.00
2023-04-17T10:17:31.529Z,65.10
2023-04-17T10:20:20.185Z,65.00
2023-04-17T10:22:54.848Z,65.10
2023-04-17T10:25:27.338Z,64.90
2023-04-17T10:28:01.293Z,65.00
2023-04-17T10:30:49.912Z,65.20
2023-04-17T10:33:20.002Z,64.60
2023-04-17T10:35:47.397Z,64.40
2023-04-17T10:38:16.409Z,64.30
2023-04-17T10:40:44.759Z,63.90
2023-04-17T10:43:17.644Z,63.00
2023-04-17T10:46:04.058Z,62.40
2023-04-17T10:48:49.682Z,62.50
2023-04-17T10:51:32.168Z,62.40
2023-04-17T10:54:06.459Z,61.60
2023-04-17T10:56:48.596Z,61.10
2023-04-17T10:59:20.734Z,60.80
2023-04-17T11:01:47.750Z,60.00
2023-04-17T11:04:21.414Z,59.70
2023-04-17T11:06:48.551Z,59.40
2023-04-17T11:09:16.211Z,59.60
2023-04-17T11:11:45.237Z,58.30
2023-04-17T11:14:20.720Z,58.30
2023-04-17T11:16:49.794Z,58.20
2023-04-17T11:19:24.566Z,57.80
2023-04-17T11:21:53.870Z,58.30
2023-04-17T11:24:26.930Z,58.30
2023-04-17T11:26:54.736Z,58.10
2023-04-17T11:29:23.602Z,57.80
2023-04-17T11:31:52.732Z,57.30
2023-04-17T11:34:20.494Z,57.70
2023-04-17T11:37:00.709Z,57.30
2023-04-17T11:39:34.442Z,57.20
2023-04-17T11:42:05.346Z,57.60
2023-04-17T11:44:32.614Z,57.10
2023-04-17T11:46:59.585Z,57.10
2023-04-17T11:49:37.499Z,56.90
2023-04-17T11:52:05.982Z,56.80
2023-04-17T11:54:37.797Z,56.50
2023-04-17T11:57:07.733Z,56.10
2023-04-17T11:59:37.370Z,56.60
2023-04-17T12:02:07.349Z,56.40
2023-04-17T12:04:36.395Z,56.40
2023-04-17T12:07:08.010Z,55.70
2023-04-17T12:09:35.925Z,55.20
2023-04-17T12:12:07.195Z,55.00
2023-04-17T14:40:10.454Z,51.40
2023-04-17T14:42:53.540Z,50.50
2023-04-17T14:45:26.654Z,50.20
2023-04-17T14:47:56.097Z,49.90
2023-04-17T14:50:26.596Z,48.90
2023-04-17T14:52:56.388Z,48.20
2023-04-17T14:55:24.845Z,46.90
2023-04-17T14:57:53.255Z,46.60
2023-04-17T15:00:21.708Z,46.80
2023-04-17T15:02:50.082Z,46.60
2023-04-17T15:05:21.569Z,45.90
2023-04-17T15:07:52.190Z,46.30
2023-04-17T15:10:20.880Z,46.40
2023-04-17T15:12:48.429Z,46.40
2023-04-17T15:15:16.515Z,45.90
2023-04-17T15:17:45.878Z,45.90
2023-04-17T15:20:15.725Z,46.20
2023-04-17T15:22:45.936Z,46.90
2023-04-17T15:25:13.362Z,48.10
2023-04-17T15:27:41.164Z,49.20
2023-04-17T15:30:09.850Z,49.80
2023-04-17T15:32:37.583Z,50.40
2023-04-17T15:35:06.284Z,50.80
2023-04-17T15:37:35.813Z,50.60
2023-04-17T15:40:05.150Z,50.40
2023-04-17T15:42:33.969Z,50.60
2023-04-17T15:45:02.937Z,50.40
2023-04-17T15:47:33.747Z,49.50
2023-04-17T15:50:01.698Z,48.60
2023-04-17T15:52:29.032Z,48.70
2023-04-17T15:55:00.686Z,48.80
2023-04-17T15:57:28.463Z,49.20
2023-04-17T15:59:56.230Z,49.20
2023-04-17T16:02:23.858Z,49.20
2023-04-17T16:04:52.286Z,49.80
2023-04-17T16:07:20.514Z,49.80
2023-04-17T16:09:48.462Z,50.30
2023-04-17T16:12:15.934Z,50.60
2023-04-17T16:14:49.345Z,51.00
2023-04-17T16:17:24.064Z,51.50
2023-04-17T16:19:54.573Z,52.00
2023-04-17T16:22:22.082Z,52.40
2023-04-17T16:24:49.399Z,52.80
2023-04-17T16:27:17.446Z,53.20
2023-04-17T16:29:46.980Z,53.40
2023-04-17T16:32:15.162Z,53.40
2023-04-17T16:34:42.601Z,53.30
2023-04-17T16:37:10.940Z,52.40
2023-04-17T16:39:46.182Z,50.40
2023-04-17T16:42:13.597Z,48.80
2023-04-17T16:44:41.340Z,48.10
2023-04-17T16:47:13.989Z,46.70
2023-04-17T16:49:43.083Z,45.00
2023-04-17T16:52:13.342Z,43.70
2023-04-17T16:54:41.103Z,43.80
2023-04-17T16:57:09.114Z,43.40
2023-04-17T16:59:37.012Z,44.20
2023-04-17T17:02:05.153Z,44.60
2023-04-17T17:04:35.478Z,45.20
2023-04-17T17:07:03.258Z,45.30
2023-04-17T17:09:31.538Z,45.30
2023-04-17T17:11:58.428Z,45.80
2023-04-17T17:14:25.847Z,46.30
2023-04-17T17:16:53.331Z,46.50
2023-04-17T17:19:21.090Z,46.20
2023-04-17T17:21:48.199Z,46.10
2023-04-17T17:24:15.159Z,46.00
2023-04-17T17:26:42.131Z,46.30
2023-04-17T17:29:09.145Z,46.30
2023-04-17T17:31:37.512Z,46.30
2023-04-17T17:34:16.709Z,46.10
2023-04-17T17:36:52.127Z,46.10
2023-04-17T17:39:21.212Z,46.60
2023-04-17T17:41:48.684Z,46.90
2023-04-17T17:44:15.887Z,46.90
2023-04-17T17:46:43.576Z,47.10
2023-04-17T17:49:11.066Z,47.60
2023-04-17T17:51:38.178Z,48.00
2023-04-17T17:54:05.270Z,48.50
2023-04-17T17:56:35.875Z,49.00
2023-04-17T17:59:03.045Z,49.50
2023-04-17T18:01:30.436Z,50.10
2023-04-17T18:04:01.907Z,50.60
2023-04-17T18:06:29.179Z,51.10
2023-04-17T18:08:57.923Z,51.60
2023-04-17T18:11:25.318Z,52.00
2023-04-17T18:13:52.410Z,52.50
2023-04-17T18:16:20.326Z,53.00
2023-04-17T18:18:47.620Z,53.40
2023-04-17T18:21:15.856Z,53.80
2023-04-17T18:23:43.111Z,54.10
2023-04-17T18:26:13.036Z,54.30
2023-04-17T18:28:44.545Z,54.80
2023-04-17T18:31:12.574Z,55.20
2023-04-17T18:33:40.018Z,55.50
2023-04-17T18:36:07.373Z,56.00
2023-04-17T18:38:35.077Z,56.20
2023-04-17T18:41:02.639Z,56.40
2023-04-17T18:43:29.570Z,56.70
2023-04-17T18:45:56.604Z,57.00
2023-04-17T18:48:25.123Z,57.10
2023-04-17T18:50:52.325Z,57.30
2023-04-17T18:53:19.222Z,57.50
2023-04-17T18:55:46.407Z,57.70
2023-04-17T18:58:13.503Z,57.90
2023-04-17T19:00:40.676Z,58.10
2023-04-17T19:03:07.783Z,58.40
2023-04-17T19:05:34.908Z,58.50
2023-04-17T19:08:01.931Z,58.90
2023-04-17T19:10:30.048Z,59.00
2023-04-17T19:12:56.941Z,59.30
2023-04-17T19:15:27.071Z,59.90
2023-04-17T19:17:54.135Z,60.10
2023-04-17T19:20:22.793Z,60.70
2023-04-17T19:22:49.727Z,61.30
2023-04-17T19:25:16.835Z,61.50
2023-04-17T19:27:43.911Z,61.80
2023-04-17T19:30:11.708Z,62.10
2023-04-17T19:32:38.857Z,62.10
2023-04-17T19:35:06.880Z,62.60
2023-04-17T19:37:37.294Z,62.90
2023-04-17T19:40:14.239Z,63.00
2023-04-17T19:42:48.805Z,63.10
2023-04-17T19:45:16.026Z,63.30
2023-04-17T19:47:43.082Z,63.60
2023-04-17T19:50:10.736Z,63.60
2023-04-17T19:52:43.248Z,63.60
2023-04-17T19:55:10.352Z,63.80
2023-04-17T19:57:39.541Z,64.10
2023-04-17T20:00:14.666Z,64.20
2023-04-17T20:02:43.892Z,64.20
2023-04-17T20:05:10.835Z,64.40
2023-04-17T20:07:39.813Z,64.50
2023-04-17T20:10:17.049Z,64.60
2023-04-17T20:12:44.029Z,64.80
2023-04-17T20:15:22.227Z,64.80
2023-04-17T20:17:49.574Z,65.00
2023-04-17T20:20:17.274Z,65.00
2023-04-17T20:22:44.346Z,65.20
2023-04-17T20:25:11.246Z,65.30
2023-04-17T20:27:38.363Z,65.40
2023-04-17T20:30:05.836Z,65.70
2023-04-17T20:32:32.849Z,65.70
2023-04-17T20:35:00.392Z,65.80
2023-04-17T20:37:27.269Z,65.80
2023-04-17T20:39:54.757Z,66.00
2023-04-17T20:42:21.671Z,66.10
2023-04-17T20:44:48.532Z,66.30
2023-04-17T20:47:43.519Z,66.40
2023-04-17T20:50:21.420Z,66.20
2023-04-17T20:52:48.994Z,66.40
2023-04-17T20:55:18.280Z,66.50
2023-04-17T20:57:45.205Z,66.60
2023-04-17T21:00:12.526Z,66.60
2023-04-17T21:02:39.597Z,66.50
2023-04-17T21:05:07.989Z,66.50
2023-04-17T21:07:35.994Z,66.70
2023-04-17T21:10:03.039Z,66.90
2023-04-17T21:12:32.721Z,67.00
2023-04-17T21:14:59.727Z,66.90
2023-04-17T21:17:26.810Z,67.00
2023-04-17T21:19:56.006Z,66.90
2023-04-17T21:22:23.287Z,66.90
2023-04-17T21:24:50.184Z,67.00
2023-04-17T21:27:17.112Z,66.90
2023-04-17T21:29:44.019Z,66.90
2023-04-17T21:32:10.968Z,66.90
2023-04-17T21:34:37.877Z,66.90
2023-04-17T21:37:05.108Z,66.90
2023-04-17T21:39:33.304Z,67.00
2023-04-17T21:42:01.994Z,67.10
2023-04-17T21:44:29.263Z,67.00
2023-04-17T21:46:56.340Z,67.10
2023-04-17T21:49:24.014Z,67.10
2023-04-17T21:51:51.002Z,67.00
2023-04-17T21:54:17.975Z,67.00
2023-04-17T21:56:44.828Z,66.90
2023-04-17T21:59:11.939Z,66.80
2023-04-17T22:01:38.876Z,66.90
2023-04-17T22:04:05.883Z,66.80
2023-04-17T22:06:36.919Z,66.80
2023-04-17T22:09:04.975Z,66.80
2023-04-17T22:11:32.720Z,66.90
2023-04-17T22:13:59.748Z,66.80
2023-04-17T22:16:26.719Z,66.90
2023-04-17T22:18:54.316Z,66.90
2023-04-17T22:21:21.559Z,66.90
2023-04-17T22:23:48.649Z,66.90
2023-04-17T22:26:15.720Z,66.80
2023-04-17T22:28:42.534Z,67.00
2023-04-17T22:31:09.957Z,67.10
2023-04-17T22:33:36.862Z,67.10
2023-04-17T22:36:04.186Z,67.10
2023-04-17T22:38:31.023Z,67.20
2023-04-17T22:40:57.895Z,67.30
2023-04-17T22:43:24.853Z,67.30
2023-04-17T22:45:51.759Z,67.50
2023-04-17T22:48:18.833Z,67.50
2023-04-17T22:50:45.771Z,67.50
2023-04-17T22:53:12.731Z,67.60
2023-04-17T22:55:42.090Z,67.80
2023-04-17T22:58:08.946Z,67.70
2023-04-17T23:00:36.511Z,67.80
2023-04-17T23:03:03.525Z,68.00
2023-04-17T23:05:30.682Z,68.10
2023-04-17T23:07:57.575Z,68.10
2023-04-17T23:10:24.465Z,68.20
2023-04-17T23:12:51.467Z,68.30
2023-04-17T23:15:18.296Z,68.40
2023-04-17T23:17:45.681Z,68.40
2023-04-17T23:20:13.144Z,68.40
2023-04-17T23:22:39.984Z,68.50
2023-04-17T23:25:07.485Z,68.40
2023-04-17T23:27:34.681Z,68.50
2023-04-17T23:30:01.508Z,68.60
2023-04-17T23:32:28.391Z,68.50
2023-04-17T23:34:55.285Z,68.60
2023-04-17T23:37:22.372Z,68.50
2023-04-17T23:39:49.395Z,68.50
2023-04-17T23:42:16.381Z,68.50
2023-04-17T23:44:43.407Z,68.50
2023-04-17T23:47:11.472Z,68.50
2023-04-17T23:49:38.925Z,68.50
2023-04-17T23:52:05.993Z,68.40
2023-04-17T23:54:33.029Z,68.30
2023-04-17T23:56:59.998Z,68.10
2023-04-17T23:59:26.803Z,68.00
